Shelburne Falls, Massachusetts
Current Conditions -  °F | °C
As of 11:52 PM on Wednesday 26 Nov 2014 (Local Time) from KAQW Reporting Station
Light Snow Light Snow  
Wind Chill: 22°   Ceiling: 800
Heat Index: 29°   Visibility: 1.5mi
Dew Point: 26°   Wind: 7mph
Humidity: 89%   Direction: 240°WSW
Pressure: 29.84"   Gusts: NA
Location:  42.6°N, 72.74°W
Report Text: KAQW 270452Z AUTO 24006KT 1 1/2SM -SN BR OVC008 M02/M03 A2984 RMK AO2 SLP113 P0001 T10171033 400391017 FZRANO $
Loading
Personal Weather Stations






























Interactive Weather Map New forecast layout! Learn more

10-Day Weather Forecast

Advertisements
Track Severe Weather on mobile